createdAt,value
2017-11-30T00:02:41.038Z,10.90
2017-11-30T00:05:10.501Z,10.80
2017-11-30T00:07:47.477Z,10.80
2017-11-30T00:10:23.340Z,10.80
2017-11-30T00:12:59.037Z,10.80
2017-11-30T00:15:29.948Z,10.80
2017-11-30T00:18:03.341Z,10.80
2017-11-30T00:20:32.472Z,10.90
2017-11-30T00:23:01.485Z,11.00
2017-11-30T00:25:35.376Z,11.00
2017-11-30T00:28:05.326Z,10.90
2017-11-30T00:33:13.351Z,10.80
2017-11-30T00:35:42.237Z,10.80
2017-11-30T00:38:11.717Z,10.80
2017-11-30T00:40:43.214Z,10.70
2017-11-30T00:43:21.797Z,10.70
2017-11-30T00:45:52.259Z,10.70
2017-11-30T00:48:22.865Z,10.60
2017-11-30T00:51:04.718Z,10.60
2017-11-30T00:53:33.233Z,10.60
2017-11-30T00:56:07.723Z,10.60
2017-11-30T00:58:37.158Z,10.70
2017-11-30T01:01:07.762Z,10.90
2017-11-30T01:03:41.958Z,10.90
2017-11-30T01:06:11.859Z,10.90
2017-11-30T01:08:43.018Z,10.90
2017-11-30T01:11:13.754Z,10.80
2017-11-30T01:13:43.901Z,10.80
2017-11-30T01:16:13.465Z,10.70
2017-11-30T01:18:43.924Z,10.60
2017-11-30T01:21:21.377Z,10.60
2017-11-30T01:23:51.871Z,10.60
2017-11-30T01:26:22.573Z,10.50
2017-11-30T01:28:53.272Z,10.40
2017-11-30T01:31:26.489Z,10.40
2017-11-30T01:33:57.675Z,10.40
2017-11-30T01:36:31.853Z,10.40
2017-11-30T01:39:02.831Z,10.40
2017-11-30T01:41:33.348Z,10.50
2017-11-30T01:44:03.394Z,10.60
2017-11-30T01:46:33.442Z,10.50
2017-11-30T01:49:04.004Z,10.50
2017-11-30T01:51:33.989Z,10.50
2017-11-30T01:54:04.182Z,10.40
2017-11-30T01:56:39.958Z,10.40
2017-11-30T01:59:09.342Z,10.40
2017-11-30T02:01:39.351Z,10.30
2017-11-30T02:04:09.108Z,10.30
2017-11-30T02:06:42.701Z,10.30
2017-11-30T02:09:13.326Z,10.30
2017-11-30T02:11:44.260Z,10.40
2017-11-30T02:14:17.427Z,10.40
2017-11-30T02:16:49.468Z,10.40
2017-11-30T02:19:21.103Z,10.50
2017-11-30T02:21:49.594Z,10.50
2017-11-30T02:24:22.978Z,10.50
2017-11-30T02:26:52.181Z,10.40
2017-11-30T02:29:21.743Z,10.40
2017-11-30T02:31:53.897Z,10.40
2017-11-30T02:34:26.393Z,10.30
2017-11-30T02:37:01.517Z,10.30
2017-11-30T02:39:34.911Z,10.20
2017-11-30T02:42:06.259Z,10.20
2017-11-30T02:44:41.656Z,10.20
2017-11-30T02:47:10.341Z,10.30
2017-11-30T02:49:45.126Z,10.40
2017-11-30T02:52:18.356Z,10.30
2017-11-30T02:54:49.332Z,10.40
2017-11-30T02:57:21.933Z,10.40
2017-11-30T02:59:53.472Z,10.40
2017-11-30T03:02:25.616Z,10.40
2017-11-30T03:04:56.870Z,10.30
2017-11-30T03:07:29.466Z,10.30
2017-11-30T03:09:58.802Z,10.30
2017-11-30T03:12:29.336Z,10.20
2017-11-30T03:14:59.357Z,10.20
2017-11-30T03:17:28.447Z,10.10
2017-11-30T03:19:57.444Z,10.10
2017-11-30T03:22:27.259Z,10.20
2017-11-30T03:24:56.890Z,10.30
2017-11-30T03:27:25.369Z,10.20
2017-11-30T03:29:55.666Z,10.20
2017-11-30T03:32:27.466Z,10.30
2017-11-30T03:34:58.562Z,10.30
2017-11-30T03:37:30.518Z,10.30
2017-11-30T03:40:01.575Z,10.20
2017-11-30T03:42:30.739Z,10.20
2017-11-30T03:44:59.826Z,10.20
2017-11-30T03:47:29.256Z,10.10
2017-11-30T03:50:00.094Z,10.10
2017-11-30T03:52:30.390Z,10.00
2017-11-30T03:55:00.629Z,10.00
2017-11-30T03:57:32.389Z,10.00
2017-11-30T04:00:03.166Z,10.00
2017-11-30T04:02:31.598Z,10.10
2017-11-30T04:05:00.045Z,10.20
2017-11-30T04:07:30.445Z,10.20
2017-11-30T04:10:00.151Z,10.20
2017-11-30T04:12:29.628Z,10.20
2017-11-30T04:14:59.849Z,10.10
2017-11-30T04:17:37.037Z,10.10
2017-11-30T04:20:07.742Z,10.10
2017-11-30T04:22:36.826Z,10.00
2017-11-30T04:25:07.799Z,10.00
2017-11-30T04:27:37.929Z,9.90
2017-11-30T04:30:07.855Z,9.90
2017-11-30T04:32:39.382Z,9.90
2017-11-30T04:35:20.483Z,10.00
2017-11-30T04:37:54.598Z,10.00
2017-11-30T04:40:25.694Z,10.20
2017-11-30T04:42:56.177Z,10.20
2017-11-30T04:45:25.311Z,10.20
2017-11-30T04:47:59.511Z,10.20
2017-11-30T04:50:29.781Z,10.10
2017-11-30T04:52:59.730Z,9.90
2017-11-30T04:55:30.922Z,9.80
2017-11-30T04:58:08.423Z,9.70
2017-11-30T05:00:41.327Z,9.60
2017-11-30T05:03:14.375Z,9.60
2017-11-30T05:05:44.834Z,9.60
2017-11-30T05:08:14.808Z,9.60
2017-11-30T05:10:43.452Z,9.70
2017-11-30T05:13:12.679Z,9.80
2017-11-30T05:15:42.209Z,9.90
2017-11-30T05:18:10.785Z,10.00
2017-11-30T05:20:40.518Z,10.00
2017-11-30T05:23:10.018Z,10.00
2017-11-30T05:25:47.702Z,10.00
2017-11-30T05:28:18.722Z,9.80
2017-11-30T05:30:50.256Z,9.70
2017-11-30T05:33:20.702Z,9.60
2017-11-30T05:35:55.237Z,9.50
2017-11-30T05:38:26.551Z,9.50
2017-11-30T05:40:59.013Z,9.50
2017-11-30T05:43:30.142Z,9.60
2017-11-30T05:46:01.242Z,9.80
2017-11-30T05:48:31.581Z,9.90
2017-11-30T05:51:01.854Z,9.90
2017-11-30T05:53:31.309Z,9.90
2017-11-30T05:56:01.073Z,9.90
2017-11-30T05:58:30.327Z,9.80
2017-11-30T06:00:59.495Z,9.80
2017-11-30T06:03:28.444Z,9.80
2017-11-30T06:05:57.691Z,9.70
2017-11-30T06:08:27.121Z,9.60
2017-11-30T06:10:55.619Z,9.50
2017-11-30T06:13:24.400Z,9.50
2017-11-30T06:15:54.679Z,9.50
2017-11-30T06:18:25.678Z,9.60
2017-11-30T06:20:55.498Z,9.70
2017-11-30T06:23:24.864Z,9.70
2017-11-30T06:26:01.062Z,9.70
2017-11-30T06:28:30.156Z,9.70
2017-11-30T06:31:07.511Z,9.60
2017-11-30T06:33:42.801Z,9.60
2017-11-30T06:36:16.609Z,9.60
2017-11-30T06:38:56.204Z,9.60
2017-11-30T06:41:40.466Z,9.50
2017-11-30T06:44:11.732Z,9.60
2017-11-30T06:46:41.552Z,9.50
2017-11-30T06:49:12.434Z,9.50
2017-11-30T06:54:47.336Z,9.60
2017-11-30T06:57:23.524Z,9.60
2017-11-30T06:59:57.013Z,9.50
2017-11-30T07:02:30.611Z,9.50
2017-11-30T07:05:02.527Z,9.50
2017-11-30T07:07:31.798Z,9.50
2017-11-30T07:12:46.485Z,9.40
2017-11-30T07:15:16.355Z,9.50
2017-11-30T07:17:58.721Z,9.60
2017-11-30T07:23:15.900Z,9.70
2017-11-30T07:25:45.994Z,9.60
2017-11-30T07:31:02.596Z,9.50
2017-11-30T07:33:38.130Z,9.40
2017-11-30T07:36:15.631Z,9.40
2017-11-30T07:41:30.949Z,9.30
2017-11-30T07:44:00.538Z,9.30
2017-11-30T07:46:29.229Z,9.40
2017-11-30T07:48:58.076Z,9.50
2017-11-30T07:51:28.662Z,9.60
2017-11-30T07:54:01.225Z,9.70
2017-11-30T07:56:35.197Z,9.70
2017-11-30T07:59:08.325Z,9.60
2017-11-30T08:01:47.348Z,9.60
2017-11-30T08:04:17.108Z,9.50
2017-11-30T08:06:48.944Z,9.40
2017-11-30T08:09:20.902Z,9.20
2017-11-30T08:11:51.593Z,9.10
2017-11-30T08:14:21.797Z,9.10
2017-11-30T08:16:52.693Z,9.20
2017-11-30T08:19:27.081Z,9.30
2017-11-30T08:22:00.722Z,9.50
2017-11-30T08:27:20.362Z,9.40
2017-11-30T08:29:53.460Z,9.50
2017-11-30T08:32:24.380Z,9.40
2017-11-30T08:34:55.640Z,9.40
2017-11-30T08:37:29.819Z,9.40
2017-11-30T08:40:02.176Z,9.40
2017-11-30T08:42:33.673Z,9.50
2017-11-30T08:45:03.378Z,9.50
2017-11-30T08:47:33.833Z,9.50
2017-11-30T08:50:04.525Z,9.50
2017-11-30T08:52:34.224Z,9.50
2017-11-30T08:55:04.154Z,9.50
2017-11-30T08:57:35.679Z,9.50
2017-11-30T09:00:06.455Z,9.50
2017-11-30T09:02:37.351Z,9.50
2017-11-30T09:05:10.155Z,9.50
2017-11-30T09:07:45.795Z,9.50
2017-11-30T09:10:18.681Z,9.40
2017-11-30T09:12:53.366Z,9.50
2017-11-30T09:18:10.545Z,9.60
2017-11-30T09:20:42.477Z,9.70
2017-11-30T09:23:19.170Z,9.80
2017-11-30T09:25:51.608Z,9.80
2017-11-30T09:28:23.380Z,9.60
2017-11-30T09:30:53.869Z,9.60
2017-11-30T09:33:24.674Z,9.50
2017-11-30T09:35:57.667Z,9.40
2017-11-30T09:41:15.042Z,9.50
2017-11-30T09:43:48.872Z,9.50
2017-11-30T09:46:19.381Z,9.60
2017-11-30T09:48:53.473Z,9.80
2017-11-30T09:51:25.768Z,9.80
2017-11-30T09:53:56.671Z,9.80
2017-11-30T09:56:32.871Z,9.90
2017-11-30T10:01:51.471Z,9.90
2017-11-30T10:04:28.371Z,9.80
2017-11-30T10:06:58.589Z,9.60
2017-11-30T10:12:09.671Z,9.70
2017-11-30T10:14:40.764Z,9.70
2017-11-30T10:17:15.369Z,9.80
2017-11-30T10:19:46.223Z,9.90
2017-11-30T10:22:17.681Z,9.90
2017-11-30T10:24:48.577Z,9.90
2017-11-30T10:27:20.871Z,9.90
2017-11-30T10:29:50.588Z,9.80
2017-11-30T10:32:23.001Z,9.80
2017-11-30T10:34:54.496Z,9.90
2017-11-30T10:37:25.993Z,9.90
2017-11-30T10:40:02.379Z,9.90
2017-11-30T10:42:36.935Z,9.90
2017-11-30T10:45:15.958Z,9.90
2017-11-30T10:47:47.078Z,9.90
2017-11-30T10:50:21.484Z,9.90
2017-11-30T10:52:58.154Z,9.90
2017-11-30T10:55:31.552Z,9.90
2017-11-30T10:58:03.154Z,9.80
2017-11-30T11:00:41.494Z,9.80
2017-11-30T11:03:11.694Z,9.80
2017-11-30T11:05:46.282Z,9.80
2017-11-30T11:08:24.781Z,9.90
2017-11-30T11:13:42.104Z,10.10
2017-11-30T11:16:12.998Z,10.20
2017-11-30T11:21:19.468Z,10.10
2017-11-30T11:23:53.357Z,9.90
2017-11-30T11:26:24.820Z,9.90
2017-11-30T11:29:05.408Z,9.70
2017-11-30T11:34:28.684Z,9.60
2017-11-30T11:39:45.516Z,9.90
2017-11-30T11:42:18.346Z,9.90
2017-11-30T11:47:32.822Z,10.00
2017-11-30T11:50:07.982Z,10.00
2017-11-30T17:30:30.587Z,9.10
2017-11-30T17:33:04.193Z,9.20
2017-11-30T17:35:42.344Z,9.20
2017-11-30T17:41:10.021Z,9.20
2017-11-30T17:46:36.971Z,9.20
2017-11-30T17:49:19.889Z,9.20
2017-11-30T17:54:33.684Z,9.10
2017-11-30T17:59:55.740Z,9.00
2017-11-30T18:02:27.258Z,9.00
2017-11-30T18:05:00.130Z,8.90
2017-11-30T18:07:38.939Z,8.90
2017-11-30T18:10:10.153Z,8.90
2017-11-30T18:12:40.551Z,8.80
2017-11-30T18:15:11.852Z,8.90
2017-11-30T18:17:47.861Z,8.80
2017-11-30T18:23:08.364Z,9.00
2017-11-30T18:25:49.172Z,9.10
2017-11-30T18:28:24.799Z,9.10
2017-11-30T18:36:29.297Z,9.10
2017-11-30T18:41:53.899Z,8.80
2017-11-30T18:44:29.897Z,8.90
2017-11-30T18:47:05.497Z,8.90
2017-11-30T18:49:39.475Z,9.00
2017-11-30T18:52:11.134Z,9.00
2017-11-30T18:54:53.135Z,9.00
2017-11-30T18:57:26.178Z,8.90
2017-11-30T18:59:59.161Z,8.90
2017-11-30T19:02:44.733Z,8.90
2017-11-30T19:05:23.397Z,8.90
2017-11-30T19:07:56.444Z,8.90
2017-11-30T19:10:30.157Z,9.10
2017-11-30T19:13:01.198Z,9.10
2017-11-30T19:15:37.089Z,9.00
2017-11-30T19:18:13.190Z,9.00
2017-11-30T19:26:28.851Z,8.80
2017-11-30T19:31:46.954Z,8.70
2017-11-30T19:37:06.454Z,8.70
2017-11-30T19:39:40.765Z,8.70
2017-11-30T19:45:01.444Z,8.70
2017-11-30T19:53:03.546Z,8.60
2017-11-30T19:58:26.142Z,8.50
2017-11-30T20:01:02.645Z,8.60
2017-11-30T20:03:38.985Z,8.70
2017-11-30T20:08:54.860Z,8.70
2017-11-30T20:11:30.258Z,8.70
2017-11-30T20:14:06.457Z,8.70
2017-11-30T20:22:08.882Z,8.70
2017-11-30T20:24:40.769Z,8.70
2017-11-30T20:38:20.578Z,8.50
2017-11-30T20:40:53.199Z,8.50
2017-11-30T20:43:29.383Z,8.40
2017-11-30T20:46:08.583Z,8.50
2017-11-30T20:48:40.808Z,8.60
2017-11-30T20:51:13.836Z,8.70
2017-11-30T20:53:47.613Z,8.70
2017-11-30T21:07:19.870Z,8.70
2017-11-30T21:12:42.957Z,8.60
2017-11-30T21:15:14.918Z,8.50
2017-11-30T21:20:37.132Z,8.40
2017-11-30T21:23:10.314Z,8.40
2017-11-30T21:25:45.250Z,8.40
2017-11-30T23:14:34.196Z,8.40
2017-11-30T23:17:14.049Z,8.30
2017-11-30T23:55:58.238Z,8.10
